sensor_id;sensor_type;location;lat;lon;timestamp;P1;durP1;ratioP1;P2;durP2;ratioP2
65172;SDS011;69059;52.218;5.172;2023-07-08T00:02:14;3.47;;;2.63;;
65172;SDS011;69059;52.218;5.172;2023-07-08T00:04:42;5.53;;;2.90;;
65172;SDS011;69059;52.218;5.172;2023-07-08T00:07:10;3.80;;;2.78;;
65172;SDS011;69059;52.218;5.172;2023-07-08T00:09:40;3.83;;;2.30;;
65172;SDS011;69059;52.218;5.172;2023-07-08T00:12:08;3.33;;;2.85;;
65172;SDS011;69059;52.218;5.172;2023-07-08T00:14:39;4.73;;;2.80;;
65172;SDS011;69059;52.218;5.172;2023-07-08T00:17:10;6.57;;;2.63;;
65172;SDS011;69059;52.218;5.172;2023-07-08T00:19:39;3.90;;;2.63;;
65172;SDS011;69059;52.218;5.172;2023-07-08T00:22:08;5.18;;;2.53;;
65172;SDS011;69059;52.218;5.172;2023-07-08T00:24:41;5.93;;;3.00;;
65172;SDS011;69059;52.218;5.172;2023-07-08T00:27:10;4.60;;;2.80;;
65172;SDS011;69059;52.218;5.172;2023-07-08T00:29:41;3.83;;;2.77;;
65172;SDS011;69059;52.218;5.172;2023-07-08T00:32:12;4.97;;;2.80;;
65172;SDS011;69059;52.218;5.172;2023-07-08T00:34:41;4.23;;;2.77;;
65172;SDS011;69059;52.218;5.172;2023-07-08T00:37:10;4.38;;;2.42;;
65172;SDS011;69059;52.218;5.172;2023-07-08T00:39:39;3.83;;;2.60;;
65172;SDS011;69059;52.218;5.172;2023-07-08T00:42:12;5.00;;;2.72;;
65172;SDS011;69059;52.218;5.172;2023-07-08T00:44:44;7.17;;;3.17;;
65172;SDS011;69059;52.218;5.172;2023-07-08T00:47:13;4.17;;;2.70;;
65172;SDS011;69059;52.218;5.172;2023-07-08T00:49:43;5.23;;;2.80;;
65172;SDS011;69059;52.218;5.172;2023-07-08T00:52:18;4.87;;;3.07;;
65172;SDS011;69059;52.218;5.172;2023-07-08T00:54:49;3.90;;;2.90;;
65172;SDS011;69059;52.218;5.172;2023-07-08T00:57:18;4.97;;;3.00;;
65172;SDS011;69059;52.218;5.172;2023-07-08T00:59:50;4.43;;;2.57;;
65172;SDS011;69059;52.218;5.172;2023-07-08T01:02:22;4.57;;;2.90;;
65172;SDS011;69059;52.218;5.172;2023-07-08T01:04:54;4.53;;;2.83;;
65172;SDS011;69059;52.218;5.172;2023-07-08T01:07:26;4.30;;;2.80;;
65172;SDS011;69059;52.218;5.172;2023-07-08T01:09:55;3.70;;;2.67;;
65172;SDS011;69059;52.218;5.172;2023-07-08T01:12:27;4.13;;;2.97;;
65172;SDS011;69059;52.218;5.172;2023-07-08T01:15:00;4.37;;;3.00;;
65172;SDS011;69059;52.218;5.172;2023-07-08T01:17:30;3.87;;;2.93;;
65172;SDS011;69059;52.218;5.172;2023-07-08T01:19:59;6.40;;;3.30;;
65172;SDS011;69059;52.218;5.172;2023-07-08T01:22:32;3.90;;;2.80;;
65172;SDS011;69059;52.218;5.172;2023-07-08T01:25:02;4.87;;;3.10;;
65172;SDS011;69059;52.218;5.172;2023-07-08T01:27:31;6.73;;;3.10;;
65172;SDS011;69059;52.218;5.172;2023-07-08T01:30:03;5.40;;;2.63;;
65172;SDS011;69059;52.218;5.172;2023-07-08T01:32:32;4.77;;;3.10;;
65172;SDS011;69059;52.218;5.172;2023-07-08T01:35:04;5.70;;;3.07;;
65172;SDS011;69059;52.218;5.172;2023-07-08T01:37:34;4.20;;;2.90;;
65172;SDS011;69059;52.218;5.172;2023-07-08T01:40:14;3.47;;;2.90;;
65172;SDS011;69059;52.218;5.172;2023-07-08T01:42:44;5.43;;;2.97;;
65172;SDS011;69059;52.218;5.172;2023-07-08T01:45:12;5.63;;;3.40;;
65172;SDS011;69059;52.218;5.172;2023-07-08T01:47:41;5.93;;;3.20;;
65172;SDS011;69059;52.218;5.172;2023-07-08T01:50:12;4.80;;;2.97;;
65172;SDS011;69059;52.218;5.172;2023-07-08T01:52:41;4.32;;;2.88;;
65172;SDS011;69059;52.218;5.172;2023-07-08T01:55:09;6.37;;;3.40;;
65172;SDS011;69059;52.218;5.172;2023-07-08T01:57:37;4.32;;;2.92;;
65172;SDS011;69059;52.218;5.172;2023-07-08T02:00:05;4.85;;;2.95;;
65172;SDS011;69059;52.218;5.172;2023-07-08T02:02:34;4.97;;;2.87;;
65172;SDS011;69059;52.218;5.172;2023-07-08T02:05:03;5.75;;;3.30;;
65172;SDS011;69059;52.218;5.172;2023-07-08T02:07:31;5.72;;;3.28;;
65172;SDS011;69059;52.218;5.172;2023-07-08T02:10:00;5.55;;;2.80;;
65172;SDS011;69059;52.218;5.172;2023-07-08T02:12:28;4.33;;;3.13;;
65172;SDS011;69059;52.218;5.172;2023-07-08T02:14:56;5.90;;;3.40;;
65172;SDS011;69059;52.218;5.172;2023-07-08T02:17:25;3.50;;;3.10;;
65172;SDS011;69059;52.218;5.172;2023-07-08T02:19:55;4.53;;;2.97;;
65172;SDS011;69059;52.218;5.172;2023-07-08T02:22:23;4.78;;;2.83;;
65172;SDS011;69059;52.218;5.172;2023-07-08T02:24:51;6.45;;;3.20;;
65172;SDS011;69059;52.218;5.172;2023-07-08T02:27:20;5.93;;;3.17;;
65172;SDS011;69059;52.218;5.172;2023-07-08T02:29:48;4.17;;;2.93;;
65172;SDS011;69059;52.218;5.172;2023-07-08T02:32:16;5.13;;;3.17;;
65172;SDS011;69059;52.218;5.172;2023-07-08T02:34:44;4.20;;;3.30;;
65172;SDS011;69059;52.218;5.172;2023-07-08T02:37:12;3.70;;;2.78;;
65172;SDS011;69059;52.218;5.172;2023-07-08T02:39:40;4.50;;;3.22;;
65172;SDS011;69059;52.218;5.172;2023-07-08T02:42:08;6.32;;;3.45;;
65172;SDS011;69059;52.218;5.172;2023-07-08T02:44:37;4.40;;;2.92;;
65172;SDS011;69059;52.218;5.172;2023-07-08T02:47:05;4.53;;;3.40;;
65172;SDS011;69059;52.218;5.172;2023-07-08T02:49:33;4.95;;;3.15;;
65172;SDS011;69059;52.218;5.172;2023-07-08T02:52:01;5.00;;;3.17;;
65172;SDS011;69059;52.218;5.172;2023-07-08T02:54:29;5.85;;;3.35;;
65172;SDS011;69059;52.218;5.172;2023-07-08T02:56:57;6.68;;;3.13;;
65172;SDS011;69059;52.218;5.172;2023-07-08T02:59:25;5.70;;;3.63;;
65172;SDS011;69059;52.218;5.172;2023-07-08T03:01:56;4.67;;;3.07;;
65172;SDS011;69059;52.218;5.172;2023-07-08T03:04:24;6.10;;;3.43;;
65172;SDS011;69059;52.218;5.172;2023-07-08T03:06:52;4.38;;;3.10;;
65172;SDS011;69059;52.218;5.172;2023-07-08T03:09:20;5.32;;;3.35;;
65172;SDS011;69059;52.218;5.172;2023-07-08T03:11:48;5.53;;;3.45;;
65172;SDS011;69059;52.218;5.172;2023-07-08T03:14:16;5.18;;;3.40;;
65172;SDS011;69059;52.218;5.172;2023-07-08T03:16:44;3.50;;;2.97;;
65172;SDS011;69059;52.218;5.172;2023-07-08T03:19:13;5.32;;;3.10;;
65172;SDS011;69059;52.218;5.172;2023-07-08T03:21:43;5.47;;;3.30;;
65172;SDS011;69059;52.218;5.172;2023-07-08T03:24:11;4.90;;;3.28;;
65172;SDS011;69059;52.218;5.172;2023-07-08T03:26:43;5.00;;;3.33;;
65172;SDS011;69059;52.218;5.172;2023-07-08T03:29:13;5.77;;;3.17;;
65172;SDS011;69059;52.218;5.172;2023-07-08T03:31:42;5.33;;;3.53;;
65172;SDS011;69059;52.218;5.172;2023-07-08T03:34:10;3.67;;;2.88;;
65172;SDS011;69059;52.218;5.172;2023-07-08T03:36:41;3.87;;;3.30;;
65172;SDS011;69059;52.218;5.172;2023-07-08T03:39:15;5.07;;;3.23;;
65172;SDS011;69059;52.218;5.172;2023-07-08T03:44:11;4.15;;;3.05;;
65172;SDS011;69059;52.218;5.172;2023-07-08T03:46:42;5.03;;;3.60;;
65172;SDS011;69059;52.218;5.172;2023-07-08T03:49:11;4.47;;;3.33;;
65172;SDS011;69059;52.218;5.172;2023-07-08T03:51:39;5.93;;;3.67;;
65172;SDS011;69059;52.218;5.172;2023-07-08T03:54:12;5.97;;;3.50;;
65172;SDS011;69059;52.218;5.172;2023-07-08T03:56:41;3.40;;;3.03;;
65172;SDS011;69059;52.218;5.172;2023-07-08T03:59:09;6.97;;;3.60;;
65172;SDS011;69059;52.218;5.172;2023-07-08T04:01:37;7.32;;;3.58;;
65172;SDS011;69059;52.218;5.172;2023-07-08T04:04:08;4.53;;;3.27;;
65172;SDS011;69059;52.218;5.172;2023-07-08T04:06:39;5.00;;;2.90;;
65172;SDS011;69059;52.218;5.172;2023-07-08T04:09:07;3.75;;;3.40;;
65172;SDS011;69059;52.218;5.172;2023-07-08T04:11:36;3.97;;;2.95;;
65172;SDS011;69059;52.218;5.172;2023-07-08T04:14:04;5.10;;;3.10;;
65172;SDS011;69059;52.218;5.172;2023-07-08T04:16:35;5.40;;;3.45;;
65172;SDS011;69059;52.218;5.172;2023-07-08T04:19:13;9.00;;;3.40;;
65172;SDS011;69059;52.218;5.172;2023-07-08T04:21:42;5.97;;;3.20;;
65172;SDS011;69059;52.218;5.172;2023-07-08T04:24:12;4.07;;;2.97;;
65172;SDS011;69059;52.218;5.172;2023-07-08T04:26:42;4.77;;;3.10;;
65172;SDS011;69059;52.218;5.172;2023-07-08T04:29:13;4.40;;;3.30;;
65172;SDS011;69059;52.218;5.172;2023-07-08T04:31:43;5.93;;;3.57;;
65172;SDS011;69059;52.218;5.172;2023-07-08T04:34:11;6.05;;;3.58;;
65172;SDS011;69059;52.218;5.172;2023-07-08T04:36:39;5.05;;;3.80;;
65172;SDS011;69059;52.218;5.172;2023-07-08T04:39:08;4.95;;;3.30;;
65172;SDS011;69059;52.218;5.172;2023-07-08T04:41:37;5.37;;;3.40;;
65172;SDS011;69059;52.218;5.172;2023-07-08T04:44:08;6.80;;;3.67;;
65172;SDS011;69059;52.218;5.172;2023-07-08T04:46:38;4.93;;;3.53;;
65172;SDS011;69059;52.218;5.172;2023-07-08T04:49:08;5.93;;;3.63;;
65172;SDS011;69059;52.218;5.172;2023-07-08T04:51:37;5.70;;;4.10;;
65172;SDS011;69059;52.218;5.172;2023-07-08T04:54:05;7.13;;;3.85;;
65172;SDS011;69059;52.218;5.172;2023-07-08T04:56:34;6.00;;;3.75;;
65172;SDS011;69059;52.218;5.172;2023-07-08T04:59:04;6.30;;;3.60;;
65172;SDS011;69059;52.218;5.172;2023-07-08T05:01:34;5.97;;;3.70;;
65172;SDS011;69059;52.218;5.172;2023-07-08T05:04:02;3.83;;;3.40;;
65172;SDS011;69059;52.218;5.172;2023-07-08T05:06:31;4.77;;;3.90;;
65172;SDS011;69059;52.218;5.172;2023-07-08T05:13:56;5.65;;;3.40;;
65172;SDS011;69059;52.218;5.172;2023-07-08T05:16:24;6.40;;;3.95;;
65172;SDS011;69059;52.218;5.172;2023-07-08T05:18:53;7.00;;;3.55;;
65172;SDS011;69059;52.218;5.172;2023-07-08T05:21:21;6.10;;;3.77;;
65172;SDS011;69059;52.218;5.172;2023-07-08T05:23:49;7.38;;;4.05;;
65172;SDS011;69059;52.218;5.172;2023-07-08T05:26:17;5.18;;;3.65;;
65172;SDS011;69059;52.218;5.172;2023-07-08T05:28:45;6.35;;;3.53;;
65172;SDS011;69059;52.218;5.172;2023-07-08T05:31:13;6.95;;;3.80;;
65172;SDS011;69059;52.218;5.172;2023-07-08T05:33:41;4.68;;;3.88;;
65172;SDS011;69059;52.218;5.172;2023-07-08T05:36:10;5.03;;;3.75;;
65172;SDS011;69059;52.218;5.172;2023-07-08T05:38:38;3.90;;;3.50;;
65172;SDS011;69059;52.218;5.172;2023-07-08T05:41:06;4.30;;;3.47;;
65172;SDS011;69059;52.218;5.172;2023-07-08T05:43:34;6.30;;;3.78;;
65172;SDS011;69059;52.218;5.172;2023-07-08T05:46:02;5.00;;;4.10;;
65172;SDS011;69059;52.218;5.172;2023-07-08T05:48:38;5.40;;;3.93;;
65172;SDS011;69059;52.218;5.172;2023-07-08T05:51:06;6.95;;;3.70;;
65172;SDS011;69059;52.218;5.172;2023-07-08T05:53:35;5.72;;;3.70;;
65172;SDS011;69059;52.218;5.172;2023-07-08T05:56:03;7.53;;;3.90;;
65172;SDS011;69059;52.218;5.172;2023-07-08T05:58:31;4.85;;;3.90;;
65172;SDS011;69059;52.218;5.172;2023-07-08T06:00:59;8.82;;;4.22;;
65172;SDS011;69059;52.218;5.172;2023-07-08T06:03:28;5.67;;;3.83;;
65172;SDS011;69059;52.218;5.172;2023-07-08T06:05:56;5.10;;;3.80;;
65172;SDS011;69059;52.218;5.172;2023-07-08T06:08:24;6.00;;;3.60;;
65172;SDS011;69059;52.218;5.172;2023-07-08T06:10:54;6.28;;;3.97;;
65172;SDS011;69059;52.218;5.172;2023-07-08T06:13:22;6.77;;;3.83;;
65172;SDS011;69059;52.218;5.172;2023-07-08T06:15:49;7.30;;;3.88;;
65172;SDS011;69059;52.218;5.172;2023-07-08T06:18:17;5.40;;;3.80;;
65172;SDS011;69059;52.218;5.172;2023-07-08T06:20:50;6.90;;;4.10;;
65172;SDS011;69059;52.218;5.172;2023-07-08T06:23:19;3.97;;;3.47;;
65172;SDS011;69059;52.218;5.172;2023-07-08T06:25:47;5.28;;;3.50;;
65172;SDS011;69059;52.218;5.172;2023-07-08T06:28:16;8.10;;;3.80;;
65172;SDS011;69059;52.218;5.172;2023-07-08T06:30:44;5.17;;;3.60;;
65172;SDS011;69059;52.218;5.172;2023-07-08T06:33:12;5.57;;;3.47;;
65172;SDS011;69059;52.218;5.172;2023-07-08T06:35:41;6.43;;;3.70;;
65172;SDS011;69059;52.218;5.172;2023-07-08T06:38:11;5.20;;;3.78;;
65172;SDS011;69059;52.218;5.172;2023-07-08T06:43:07;4.43;;;3.25;;
65172;SDS011;69059;52.218;5.172;2023-07-08T06:45:36;3.30;;;3.00;;
65172;SDS011;69059;52.218;5.172;2023-07-08T06:48:05;5.85;;;3.35;;
65172;SDS011;69059;52.218;5.172;2023-07-08T06:53:01;3.53;;;3.20;;
65172;SDS011;69059;52.218;5.172;2023-07-08T06:55:29;4.35;;;3.15;;
65172;SDS011;69059;52.218;5.172;2023-07-08T06:57:56;9.13;;;3.22;;
65172;SDS011;69059;52.218;5.172;2023-07-08T07:00:24;6.95;;;3.20;;
65172;SDS011;69059;52.218;5.172;2023-07-08T07:02:54;4.57;;;3.10;;
65172;SDS011;69059;52.218;5.172;2023-07-08T07:05:22;4.95;;;3.05;;
65172;SDS011;69059;52.218;5.172;2023-07-08T07:07:50;7.07;;;3.35;;
65172;SDS011;69059;52.218;5.172;2023-07-08T07:10:19;3.83;;;2.92;;
65172;SDS011;69059;52.218;5.172;2023-07-08T07:12:47;4.20;;;3.17;;
65172;SDS011;69059;52.218;5.172;2023-07-08T07:15:15;7.20;;;2.95;;
65172;SDS011;69059;52.218;5.172;2023-07-08T07:17:43;4.65;;;2.88;;
65172;SDS011;69059;52.218;5.172;2023-07-08T07:20:13;4.93;;;2.90;;
65172;SDS011;69059;52.218;5.172;2023-07-08T07:22:41;5.18;;;3.13;;
65172;SDS011;69059;52.218;5.172;2023-07-08T07:25:09;5.68;;;2.80;;
65172;SDS011;69059;52.218;5.172;2023-07-08T07:30:05;4.22;;;2.40;;
65172;SDS011;69059;52.218;5.172;2023-07-08T07:32:36;4.75;;;2.75;;
65172;SDS011;69059;52.218;5.172;2023-07-08T07:35:05;5.45;;;2.78;;
65172;SDS011;69059;52.218;5.172;2023-07-08T07:37:34;8.25;;;2.70;;
65172;SDS011;69059;52.218;5.172;2023-07-08T07:40:02;5.05;;;2.72;;
65172;SDS011;69059;52.218;5.172;2023-07-08T07:42:31;4.32;;;2.90;;
65172;SDS011;69059;52.218;5.172;2023-07-08T07:44:59;6.03;;;2.90;;
65172;SDS011;69059;52.218;5.172;2023-07-08T07:47:27;4.10;;;3.10;;
65172;SDS011;69059;52.218;5.172;2023-07-08T07:49:57;6.68;;;2.53;;
65172;SDS011;69059;52.218;5.172;2023-07-08T07:52:25;4.03;;;2.80;;
65172;SDS011;69059;52.218;5.172;2023-07-08T07:57:22;3.80;;;2.92;;
65172;SDS011;69059;52.218;5.172;2023-07-08T07:59:50;7.43;;;2.75;;
65172;SDS011;69059;52.218;5.172;2023-07-08T08:02:18;6.75;;;3.10;;
65172;SDS011;69059;52.218;5.172;2023-07-08T08:07:14;9.40;;;3.22;;
65172;SDS011;69059;52.218;5.172;2023-07-08T08:09:42;6.00;;;3.08;;
65172;SDS011;69059;52.218;5.172;2023-07-08T08:12:11;6.50;;;3.20;;
65172;SDS011;69059;52.218;5.172;2023-07-08T08:14:39;3.55;;;3.03;;
65172;SDS011;69059;52.218;5.172;2023-07-08T08:17:07;5.13;;;3.40;;
65172;SDS011;69059;52.218;5.172;2023-07-08T08:19:35;6.65;;;3.03;;
65172;SDS011;69059;52.218;5.172;2023-07-08T08:22:03;7.45;;;3.42;;
65172;SDS011;69059;52.218;5.172;2023-07-08T08:24:31;6.55;;;3.10;;
65172;SDS011;69059;52.218;5.172;2023-07-08T08:27:00;5.50;;;3.20;;
65172;SDS011;69059;52.218;5.172;2023-07-08T08:29:29;4.97;;;2.90;;
65172;SDS011;69059;52.218;5.172;2023-07-08T08:31:57;7.75;;;3.42;;
65172;SDS011;69059;52.218;5.172;2023-07-08T08:34:25;8.43;;;3.20;;
65172;SDS011;69059;52.218;5.172;2023-07-08T08:36:54;5.20;;;3.13;;
65172;SDS011;69059;52.218;5.172;2023-07-08T08:39:22;4.93;;;3.40;;
65172;SDS011;69059;52.218;5.172;2023-07-08T08:41:50;6.35;;;3.25;;
65172;SDS011;69059;52.218;5.172;2023-07-08T08:44:22;4.75;;;2.97;;
65172;SDS011;69059;52.218;5.172;2023-07-08T08:47:02;4.75;;;3.30;;
65172;SDS011;69059;52.218;5.172;2023-07-08T08:49:40;4.82;;;3.50;;
65172;SDS011;69059;52.218;5.172;2023-07-08T08:52:12;5.80;;;3.03;;
65172;SDS011;69059;52.218;5.172;2023-07-08T08:54:41;5.25;;;3.22;;
65172;SDS011;69059;52.218;5.172;2023-07-08T08:57:12;6.45;;;3.78;;
65172;SDS011;69059;52.218;5.172;2023-07-08T08:59:49;4.25;;;3.28;;
65172;SDS011;69059;52.218;5.172;2023-07-08T09:02:27;8.50;;;3.95;;
65172;SDS011;69059;52.218;5.172;2023-07-08T09:05:02;6.93;;;3.78;;
65172;SDS011;69059;52.218;5.172;2023-07-08T09:07:36;6.13;;;3.50;;
65172;SDS011;69059;52.218;5.172;2023-07-08T09:10:13;6.82;;;3.63;;
65172;SDS011;69059;52.218;5.172;2023-07-08T09:12:49;7.03;;;3.60;;
65172;SDS011;69059;52.218;5.172;2023-07-08T09:15:19;5.25;;;3.70;;
65172;SDS011;69059;52.218;5.172;2023-07-08T09:17:49;6.43;;;4.00;;
65172;SDS011;69059;52.218;5.172;2023-07-08T09:20:23;4.82;;;3.53;;
65172;SDS011;69059;52.218;5.172;2023-07-08T09:22:56;6.57;;;3.72;;
65172;SDS011;69059;52.218;5.172;2023-07-08T09:25:30;6.25;;;3.70;;
65172;SDS011;69059;52.218;5.172;2023-07-08T09:28:00;6.57;;;3.60;;
65172;SDS011;69059;52.218;5.172;2023-07-08T09:30:28;8.05;;;4.03;;
65172;SDS011;69059;52.218;5.172;2023-07-08T09:32:58;7.00;;;4.13;;
65172;SDS011;69059;52.218;5.172;2023-07-08T09:35:37;5.47;;;3.72;;
65172;SDS011;69059;52.218;5.172;2023-07-08T09:38:07;7.05;;;3.70;;
65172;SDS011;69059;52.218;5.172;2023-07-08T09:40:37;6.10;;;3.90;;
65172;SDS011;69059;52.218;5.172;2023-07-08T09:45:44;7.05;;;4.20;;
65172;SDS011;69059;52.218;5.172;2023-07-08T09:48:16;5.68;;;4.00;;
65172;SDS011;69059;52.218;5.172;2023-07-08T09:50:47;7.18;;;3.75;;
65172;SDS011;69059;52.218;5.172;2023-07-08T09:53:16;9.02;;;4.20;;
65172;SDS011;69059;52.218;5.172;2023-07-08T09:55:44;9.07;;;4.57;;
65172;SDS011;69059;52.218;5.172;2023-07-08T09:58:23;5.60;;;3.55;;
65172;SDS011;69059;52.218;5.172;2023-07-08T10:00:53;6.75;;;4.03;;
65172;SDS011;69059;52.218;5.172;2023-07-08T10:03:26;6.65;;;4.55;;
65172;SDS011;69059;52.218;5.172;2023-07-08T10:05:56;5.43;;;4.00;;
65172;SDS011;69059;52.218;5.172;2023-07-08T10:08:28;4.43;;;3.78;;
65172;SDS011;69059;52.218;5.172;2023-07-08T10:11:12;6.72;;;4.47;;
65172;SDS011;69059;52.218;5.172;2023-07-08T10:13:47;7.03;;;4.72;;
65172;SDS011;69059;52.218;5.172;2023-07-08T10:16:37;5.82;;;4.32;;
65172;SDS011;69059;52.218;5.172;2023-07-08T10:19:10;6.97;;;4.40;;
65172;SDS011;69059;52.218;5.172;2023-07-08T10:21:41;6.70;;;4.40;;
65172;SDS011;69059;52.218;5.172;2023-07-08T10:24:22;6.35;;;4.57;;
65172;SDS011;69059;52.218;5.172;2023-07-08T10:26:59;7.10;;;4.88;;
65172;SDS011;69059;52.218;5.172;2023-07-08T10:29:37;6.72;;;4.65;;
65172;SDS011;69059;52.218;5.172;2023-07-08T10:32:13;6.57;;;4.57;;
65172;SDS011;69059;52.218;5.172;2023-07-08T10:34:54;5.50;;;4.28;;
65172;SDS011;69059;52.218;5.172;2023-07-08T10:37:30;6.75;;;4.28;;
65172;SDS011;69059;52.218;5.172;2023-07-08T10:43:03;5.90;;;4.18;;
65172;SDS011;69059;52.218;5.172;2023-07-08T10:45:46;7.40;;;4.70;;
65172;SDS011;69059;52.218;5.172;2023-07-08T10:48:24;7.72;;;4.60;;
65172;SDS011;69059;52.218;5.172;2023-07-08T10:51:08;8.68;;;4.35;;
65172;SDS011;69059;52.218;5.172;2023-07-08T10:53:49;5.78;;;4.30;;
65172;SDS011;69059;52.218;5.172;2023-07-08T10:56:33;7.65;;;4.53;;
65172;SDS011;69059;52.218;5.172;2023-07-08T10:59:06;7.75;;;4.57;;
65172;SDS011;69059;52.218;5.172;2023-07-08T11:01:49;6.90;;;4.82;;
65172;SDS011;69059;52.218;5.172;2023-07-08T11:04:31;7.95;;;4.78;;
65172;SDS011;69059;52.218;5.172;2023-07-08T11:07:10;5.90;;;4.57;;
65172;SDS011;69059;52.218;5.172;2023-07-08T11:09:46;6.85;;;4.93;;
65172;SDS011;69059;52.218;5.172;2023-07-08T11:12:19;7.57;;;4.75;;
65172;SDS011;69059;52.218;5.172;2023-07-08T11:14:54;6.53;;;4.82;;
65172;SDS011;69059;52.218;5.172;2023-07-08T11:17:30;6.75;;;4.82;;
65172;SDS011;69059;52.218;5.172;2023-07-08T11:20:07;7.93;;;5.10;;
65172;SDS011;69059;52.218;5.172;2023-07-08T11:22:47;8.57;;;4.90;;
65172;SDS011;69059;52.218;5.172;2023-07-08T11:25:19;9.23;;;4.82;;
65172;SDS011;69059;52.218;5.172;2023-07-08T11:27:52;7.18;;;4.40;;
65172;SDS011;69059;52.218;5.172;2023-07-08T11:30:23;5.95;;;5.35;;
65172;SDS011;69059;52.218;5.172;2023-07-08T11:32:58;6.10;;;5.05;;
65172;SDS011;69059;52.218;5.172;2023-07-08T11:35:29;8.18;;;5.35;;
65172;SDS011;69059;52.218;5.172;2023-07-08T11:38:05;6.38;;;5.22;;
65172;SDS011;69059;52.218;5.172;2023-07-08T11:40:38;8.32;;;4.95;;
65172;SDS011;69059;52.218;5.172;2023-07-08T11:43:17;6.18;;;5.03;;
65172;SDS011;69059;52.218;5.172;2023-07-08T11:45:48;6.72;;;5.28;;
65172;SDS011;69059;52.218;5.172;2023-07-08T11:48:18;7.32;;;5.32;;
65172;SDS011;69059;52.218;5.172;2023-07-08T11:50:50;7.30;;;5.65;;
65172;SDS011;69059;52.218;5.172;2023-07-08T11:53:37;6.60;;;5.15;;
65172;SDS011;69059;52.218;5.172;2023-07-08T11:56:24;8.02;;;5.20;;
65172;SDS011;69059;52.218;5.172;2023-07-08T11:59:04;7.00;;;4.88;;
65172;SDS011;69059;52.218;5.172;2023-07-08T12:01:39;6.65;;;5.30;;
65172;SDS011;69059;52.218;5.172;2023-07-08T12:04:17;8.55;;;5.25;;
65172;SDS011;69059;52.218;5.172;2023-07-08T12:07:01;8.02;;;5.53;;
65172;SDS011;69059;52.218;5.172;2023-07-08T12:09:38;8.85;;;5.32;;
65172;SDS011;69059;52.218;5.172;2023-07-08T12:12:14;6.55;;;5.40;;
65172;SDS011;69059;52.218;5.172;2023-07-08T12:14:47;7.85;;;5.50;;
65172;SDS011;69059;52.218;5.172;2023-07-08T12:17:15;7.15;;;5.30;;
65172;SDS011;69059;52.218;5.172;2023-07-08T12:19:43;7.25;;;5.63;;
65172;SDS011;69059;52.218;5.172;2023-07-08T12:22:14;7.57;;;5.70;;
65172;SDS011;69059;52.218;5.172;2023-07-08T12:24:43;6.68;;;5.20;;
65172;SDS011;69059;52.218;5.172;2023-07-08T12:27:11;7.43;;;5.38;;
65172;SDS011;69059;52.218;5.172;2023-07-08T12:29:40;9.63;;;5.90;;
65172;SDS011;69059;52.218;5.172;2023-07-08T12:32:10;6.93;;;5.10;;
65172;SDS011;69059;52.218;5.172;2023-07-08T12:34:40;8.20;;;5.13;;
65172;SDS011;69059;52.218;5.172;2023-07-08T12:37:10;8.38;;;5.53;;
65172;SDS011;69059;52.218;5.172;2023-07-08T12:39:40;8.57;;;5.00;;
65172;SDS011;69059;52.218;5.172;2023-07-08T12:42:10;6.90;;;4.93;;
65172;SDS011;69059;52.218;5.172;2023-07-08T12:44:39;10.65;;;5.32;;
65172;SDS011;69059;52.218;5.172;2023-07-08T12:47:10;5.32;;;4.78;;
65172;SDS011;69059;52.218;5.172;2023-07-08T12:49:38;6.75;;;4.90;;
65172;SDS011;69059;52.218;5.172;2023-07-08T12:52:17;7.15;;;4.95;;
65172;SDS011;69059;52.218;5.172;2023-07-08T12:54:47;6.15;;;5.00;;
65172;SDS011;69059;52.218;5.172;2023-07-08T12:57:17;7.45;;;5.10;;
65172;SDS011;69059;52.218;5.172;2023-07-08T12:59:46;8.48;;;5.10;;
65172;SDS011;69059;52.218;5.172;2023-07-08T13:02:15;7.95;;;4.95;;
65172;SDS011;69059;52.218;5.172;2023-07-08T13:04:46;6.43;;;4.93;;
65172;SDS011;69059;52.218;5.172;2023-07-08T13:07:22;9.10;;;5.20;;
65172;SDS011;69059;52.218;5.172;2023-07-08T13:09:56;9.10;;;5.20;;
65172;SDS011;69059;52.218;5.172;2023-07-08T13:12:26;7.72;;;5.20;;
65172;SDS011;69059;52.218;5.172;2023-07-08T13:14:54;9.15;;;4.65;;
65172;SDS011;69059;52.218;5.172;2023-07-08T13:17:26;6.35;;;5.10;;
65172;SDS011;69059;52.218;5.172;2023-07-08T13:19:54;5.65;;;4.97;;
65172;SDS011;69059;52.218;5.172;2023-07-08T13:22:24;7.03;;;5.40;;
65172;SDS011;69059;52.218;5.172;2023-07-08T13:24:58;6.13;;;5.13;;
65172;SDS011;69059;52.218;5.172;2023-07-08T13:27:29;6.18;;;4.80;;
65172;SDS011;69059;52.218;5.172;2023-07-08T13:30:14;6.57;;;4.80;;
65172;SDS011;69059;52.218;5.172;2023-07-08T13:32:48;8.07;;;4.95;;
65172;SDS011;69059;52.218;5.172;2023-07-08T13:35:23;6.03;;;4.78;;
65172;SDS011;69059;52.218;5.172;2023-07-08T13:37:55;10.10;;;5.03;;
65172;SDS011;69059;52.218;5.172;2023-07-08T13:40:26;4.88;;;4.38;;
65172;SDS011;69059;52.218;5.172;2023-07-08T13:42:56;5.95;;;4.72;;
65172;SDS011;69059;52.218;5.172;2023-07-08T13:45:25;5.68;;;4.90;;
65172;SDS011;69059;52.218;5.172;2023-07-08T13:48:01;6.60;;;4.22;;
65172;SDS011;69059;52.218;5.172;2023-07-08T13:50:39;11.75;;;4.60;;
65172;SDS011;69059;52.218;5.172;2023-07-08T13:53:15;6.50;;;5.07;;
65172;SDS011;69059;52.218;5.172;2023-07-08T13:55:45;7.78;;;4.65;;
65172;SDS011;69059;52.218;5.172;2023-07-08T13:58:16;6.25;;;4.82;;
65172;SDS011;69059;52.218;5.172;2023-07-08T14:00:45;6.75;;;4.70;;
65172;SDS011;69059;52.218;5.172;2023-07-08T14:03:13;7.68;;;4.60;;
65172;SDS011;69059;52.218;5.172;2023-07-08T14:05:45;5.13;;;4.63;;
65172;SDS011;69059;52.218;5.172;2023-07-08T14:08:14;6.82;;;5.07;;
65172;SDS011;69059;52.218;5.172;2023-07-08T14:10:44;7.43;;;5.00;;
65172;SDS011;69059;52.218;5.172;2023-07-08T14:13:12;6.07;;;4.70;;
65172;SDS011;69059;52.218;5.172;2023-07-08T14:15:43;5.57;;;4.97;;
65172;SDS011;69059;52.218;5.172;2023-07-08T14:18:11;6.13;;;4.45;;
65172;SDS011;69059;52.218;5.172;2023-07-08T14:20:40;6.63;;;4.97;;
65172;SDS011;69059;52.218;5.172;2023-07-08T14:23:08;6.18;;;4.75;;
65172;SDS011;69059;52.218;5.172;2023-07-08T14:25:39;6.45;;;4.70;;
65172;SDS011;69059;52.218;5.172;2023-07-08T14:28:07;8.85;;;4.68;;
65172;SDS011;69059;52.218;5.172;2023-07-08T14:30:37;6.88;;;4.90;;
65172;SDS011;69059;52.218;5.172;2023-07-08T14:33:11;6.85;;;4.80;;
65172;SDS011;69059;52.218;5.172;2023-07-08T14:35:40;6.28;;;4.40;;
65172;SDS011;69059;52.218;5.172;2023-07-08T14:38:09;5.85;;;4.47;;
65172;SDS011;69059;52.218;5.172;2023-07-08T14:40:39;5.80;;;4.32;;
65172;SDS011;69059;52.218;5.172;2023-07-08T14:43:11;6.13;;;4.72;;
65172;SDS011;69059;52.218;5.172;2023-07-08T14:45:46;7.57;;;4.75;;
65172;SDS011;69059;52.218;5.172;2023-07-08T14:48:19;5.15;;;4.65;;
65172;SDS011;69059;52.218;5.172;2023-07-08T14:50:49;6.63;;;4.28;;
65172;SDS011;69059;52.218;5.172;2023-07-08T14:53:17;8.60;;;4.30;;
65172;SDS011;69059;52.218;5.172;2023-07-08T14:55:46;6.88;;;4.63;;
65172;SDS011;69059;52.218;5.172;2023-07-08T14:58:17;7.50;;;4.63;;
65172;SDS011;69059;52.218;5.172;2023-07-08T15:00:49;5.20;;;4.35;;
65172;SDS011;69059;52.218;5.172;2023-07-08T15:03:19;7.57;;;4.70;;
65172;SDS011;69059;52.218;5.172;2023-07-08T15:05:47;7.63;;;4.72;;
65172;SDS011;69059;52.218;5.172;2023-07-08T15:08:15;6.55;;;4.45;;
65172;SDS011;69059;52.218;5.172;2023-07-08T15:10:44;6.38;;;4.68;;
65172;SDS011;69059;52.218;5.172;2023-07-08T15:13:15;9.07;;;4.90;;
65172;SDS011;69059;52.218;5.172;2023-07-08T15:15:47;7.40;;;4.80;;
65172;SDS011;69059;52.218;5.172;2023-07-08T15:18:16;9.07;;;4.78;;
65172;SDS011;69059;52.218;5.172;2023-07-08T15:20:47;10.25;;;4.63;;
65172;SDS011;69059;52.218;5.172;2023-07-08T15:23:15;12.82;;;4.53;;
65172;SDS011;69059;52.218;5.172;2023-07-08T15:25:44;6.38;;;4.43;;
65172;SDS011;69059;52.218;5.172;2023-07-08T15:28:15;8.57;;;4.55;;
65172;SDS011;69059;52.218;5.172;2023-07-08T15:30:45;6.07;;;4.55;;
65172;SDS011;69059;52.218;5.172;2023-07-08T15:33:14;9.07;;;5.20;;
65172;SDS011;69059;52.218;5.172;2023-07-08T15:35:43;8.25;;;5.10;;